Time,TemperatureF,DewpointF,PressureIn,WindDirection,WindDirectionDegrees,WindSpeedMPH,WindSpeedGustMPH,Humidity,HourlyPrecipIn,Conditions,Clouds,dailyrainin,SoftwareType,DateUTC
2013-06-05 00:02:00,50.0,-99.9,30.20,SW,230,2.0,2.0,-999,-99.99,,,-99.99,,2013-06-05 05:02:00,
2013-06-05 00:12:00,50.0,-99.9,30.20,SW,230,2.0,2.0,-999,-99.99,,,-99.99,,2013-06-05 05:12:00,
2013-06-05 00:23:00,50.0,-99.9,30.20,SW,230,2.0,2.0,-999,-99.99,,,-99.99,,2013-06-05 05:23:00,
2013-06-05 00:32:00,50.0,-99.9,30.20,SW,230,2.0,2.0,-999,-99.99,,,-99.99,,2013-06-05 05:32:00,
2013-06-05 00:40:00,50.0,-99.9,30.19,North,0,0.0,2.0,-999,-99.99,,,-99.99,,2013-06-05 05:40:00,
2013-06-05 01:02:00,50.0,-99.9,30.19,North,0,0.0,2.0,-999,-99.99,,,-99.99,,2013-06-05 06:02:00,
2013-06-05 01:12:00,50.0,-99.9,30.19,North,0,0.0,2.0,-999,-99.99,,,-99.99,,2013-06-05 06:12:00,
2013-06-05 01:22:00,50.0,-99.9,30.19,North,0,0.0,2.0,-999,-99.99,,,-99.99,,2013-06-05 06:22:00,
2013-06-05 01:32:00,50.0,-99.9,30.19,North,0,0.0,2.0,-999,-99.99,,,-99.99,,2013-06-05 06:32:00,
2013-06-05 01:40:00,49.0,-99.9,30.20,SSW,200,2.0,3.0,-999,-99.99,,,-99.99,,2013-06-05 06:40:00,
2013-06-05 02:02:00,49.0,-99.9,30.20,SSW,200,2.0,3.0,-999,-99.99,,,-99.99,,2013-06-05 07:02:00,
2013-06-05 02:12:00,49.0,-99.9,30.20,SSW,200,2.0,3.0,-999,-99.99,,,-99.99,,2013-06-05 07:12:00,
2013-06-05 02:22:00,49.0,-99.9,30.20,SSW,200,2.0,3.0,-999,-99.99,,,-99.99,,2013-06-05 07:22:00,
2013-06-05 02:32:00,49.0,-99.9,30.20,SSW,200,2.0,3.0,-999,-99.99,,,-99.99,,2013-06-05 07:32:00,
2013-06-05 03:40:00,50.0,-99.9,30.17,SSE,160,6.0,6.0,-999,-99.99,,,-99.99,,2013-06-05 08:40:00,
2013-06-05 04:02:00,50.0,-99.9,30.17,SSE,160,6.0,6.0,-999,-99.99,,,-99.99,,2013-06-05 09:02:00,
2013-06-05 04:12:00,50.0,-99.9,30.17,SSE,160,6.0,6.0,-999,-99.99,,,-99.99,,2013-06-05 09:12:00,
2013-06-05 04:22:00,50.0,-99.9,30.17,SSE,160,6.0,6.0,-999,-99.99,,,-99.99,,2013-06-05 09:22:00,
2013-06-05 04:33:00,50.0,-99.9,30.17,SSE,160,6.0,6.0,-999,-99.99,,,-99.99,,2013-06-05 09:33:00,
2013-06-05 04:40:00,49.0,-99.9,30.17,East,100,2.0,3.0,-999,-99.99,,,-99.99,,2013-06-05 09:40:00,
2013-06-05 05:03:00,49.0,-99.9,30.17,East,100,2.0,3.0,-999,-99.99,,,-99.99,,2013-06-05 10:03:00,
2013-06-05 05:13:00,49.0,-99.9,30.17,East,100,2.0,3.0,-999,-99.99,,,-99.99,,2013-06-05 10:13:00,
2013-06-05 05:23:00,49.0,-99.9,30.17,East,100,2.0,3.0,-999,-99.99,,,-99.99,,2013-06-05 10:23:00,
2013-06-05 05:33:00,49.0,-99.9,30.17,East,100,2.0,3.0,-999,-99.99,,,-99.99,,2013-06-05 10:33:00,
2013-06-05 05:40:00,49.0,-99.9,30.17,ESE,120,7.0,8.0,-999,-99.99,,,-99.99,,2013-06-05 10:40:00,
2013-06-05 06:02:00,49.0,-99.9,30.17,ESE,120,7.0,8.0,-999,-99.99,,,-99.99,,2013-06-05 11:02:00,
2013-06-05 06:13:00,49.0,-99.9,30.17,ESE,120,7.0,8.0,-999,-99.99,,,-99.99,,2013-06-05 11:13:00,
2013-06-05 06:22:00,49.0,-99.9,30.17,ESE,120,7.0,8.0,-999,-99.99,,,-99.99,,2013-06-05 11:22:00,
2013-06-05 06:33:00,49.0,-99.9,30.17,ESE,120,7.0,8.0,-999,-99.99,,,-99.99,,2013-06-05 11:33:00,
2013-06-05 06:40:00,49.0,-99.9,30.19,North,0,0.0,3.0,-999,-99.99,,,-99.99,,2013-06-05 11:40:00,
2013-06-05 07:02:00,49.0,-99.9,30.19,North,0,0.0,3.0,-999,-99.99,,,-99.99,,2013-06-05 12:02:00,
2013-06-05 07:12:00,49.0,-99.9,30.19,North,0,0.0,3.0,-999,-99.99,,,-99.99,,2013-06-05 12:12:00,
2013-06-05 07:22:00,49.0,-99.9,30.19,North,0,0.0,3.0,-999,-99.99,,,-99.99,,2013-06-05 12:22:00,
2013-06-05 07:32:00,49.0,-99.9,30.19,North,0,0.0,3.0,-999,-99.99,,,-99.99,,2013-06-05 12:32:00,
2013-06-05 07:40:00,49.0,-99.9,30.18,SE,130,5.0,6.0,-999,-99.99,,,-99.99,,2013-06-05 12:40:00,
2013-06-05 08:02:00,49.0,-99.9,30.18,SE,130,5.0,6.0,-999,-99.99,,,-99.99,,2013-06-05 13:02:00,
2013-06-05 08:12:00,49.0,-99.9,30.18,SE,130,5.0,6.0,-999,-99.99,,,-99.99,,2013-06-05 13:12:00,
2013-06-05 08:22:00,49.0,-99.9,30.18,SE,130,5.0,6.0,-999,-99.99,,,-99.99,,2013-06-05 13:22:00,
2013-06-05 08:33:00,49.0,-99.9,30.18,SE,130,5.0,6.0,-999,-99.99,,,-99.99,,2013-06-05 13:33:00,
2013-06-05 08:40:00,48.0,-99.9,30.17,ENE,70,7.0,9.0,-999,-99.99,,,-99.99,,2013-06-05 13:40:00,
2013-06-05 09:02:00,48.0,-99.9,30.17,ENE,70,7.0,9.0,-999,-99.99,,,-99.99,,2013-06-05 14:02:00,
2013-06-05 09:13:00,48.0,-99.9,30.17,ENE,70,7.0,9.0,-999,-99.99,,,-99.99,,2013-06-05 14:13:00,
2013-06-05 09:22:00,48.0,-99.9,30.17,ENE,70,7.0,9.0,-999,-99.99,,,-99.99,,2013-06-05 14:22:00,
2013-06-05 09:32:00,48.0,-99.9,30.17,ENE,70,7.0,9.0,-999,-99.99,,,-99.99,,2013-06-05 14:32:00,
2013-06-05 09:40:00,49.0,-99.9,30.16,East,90,5.0,8.0,-999,-99.99,,,-99.99,,2013-06-05 14:40:00,
2013-06-05 10:03:00,49.0,-99.9,30.16,East,90,5.0,8.0,-999,-99.99,,,-99.99,,2013-06-05 15:03:00,
2013-06-05 10:12:00,49.0,-99.9,30.16,East,90,5.0,8.0,-999,-99.99,,,-99.99,,2013-06-05 15:12:00,
2013-06-05 10:23:00,49.0,-99.9,30.16,East,90,5.0,8.0,-999,-99.99,,,-99.99,,2013-06-05 15:23:00,
2013-06-05 10:33:00,49.0,-99.9,30.16,East,90,5.0,8.0,-999,-99.99,,,-99.99,,2013-06-05 15:33:00,
2013-06-05 10:40:00,48.0,-99.9,30.17,East,90,2.0,5.0,-999,-99.99,,,-99.99,,2013-06-05 15:40:00,
2013-06-05 11:04:00,48.0,-99.9,30.17,East,90,2.0,5.0,-999,-99.99,,,-99.99,,2013-06-05 16:04:00,
2013-06-05 11:13:00,48.0,-99.9,30.17,East,90,2.0,5.0,-999,-99.99,,,-99.99,,2013-06-05 16:13:00,
2013-06-05 11:23:00,48.0,-99.9,30.17,East,90,2.0,5.0,-999,-99.99,,,-99.99,,2013-06-05 16:23:00,
2013-06-05 11:32:00,48.0,-99.9,30.17,East,90,2.0,5.0,-999,-99.99,,,-99.99,,2013-06-05 16:32:00,
2013-06-05 11:40:00,50.0,-99.9,30.16,ENE,70,9.0,13.0,-999,-99.99,,,-99.99,,2013-06-05 16:40:00,
2013-06-05 12:03:00,50.0,-99.9,30.16,ENE,70,9.0,13.0,-999,-99.99,,,-99.99,,2013-06-05 17:03:00,
2013-06-05 12:13:00,50.0,-99.9,30.16,ENE,70,9.0,13.0,-999,-99.99,,,-99.99,,2013-06-05 17:13:00,
2013-06-05 12:22:00,50.0,-99.9,30.16,ENE,70,9.0,13.0,-999,-99.99,,,-99.99,,2013-06-05 17:22:00,
2013-06-05 12:33:00,50.0,-99.9,30.16,ENE,70,9.0,13.0,-999,-99.99,,,-99.99,,2013-06-05 17:33:00,
2013-06-05 12:40:00,50.0,-99.9,30.17,ENE,70,6.0,8.0,-999,-99.99,,,-99.99,,2013-06-05 17:40:00,
2013-06-05 13:03:00,50.0,-99.9,30.17,ENE,70,6.0,8.0,-999,-99.99,,,-99.99,,2013-06-05 18:03:00,
2013-06-05 13:13:00,50.0,-99.9,30.17,ENE,70,6.0,8.0,-999,-99.99,,,-99.99,,2013-06-05 18:13:00,
2013-06-05 13:23:00,50.0,-99.9,30.17,ENE,70,6.0,8.0,-999,-99.99,,,-99.99,,2013-06-05 18:23:00,
2013-06-05 13:32:00,50.0,-99.9,30.17,ENE,70,6.0,8.0,-999,-99.99,,,-99.99,,2013-06-05 18:32:00,
2013-06-05 13:40:00,50.0,-99.9,30.14,East,80,10.0,15.0,-999,-99.99,,,-99.99,,2013-06-05 18:40:00,
2013-06-05 14:03:00,50.0,-99.9,30.14,East,80,10.0,15.0,-999,-99.99,,,-99.99,,2013-06-05 19:03:00,
2013-06-05 14:13:00,50.0,-99.9,30.14,East,80,10.0,15.0,-999,-99.99,,,-99.99,,2013-06-05 19:13:00,
2013-06-05 14:23:00,50.0,-99.9,30.14,East,80,10.0,15.0,-999,-99.99,,,-99.99,,2013-06-05 19:23:00,
2013-06-05 14:32:00,50.0,-99.9,30.14,East,80,10.0,15.0,-999,-99.99,,,-99.99,,2013-06-05 19:32:00,
2013-06-05 14:40:00,48.0,-99.9,30.12,ENE,70,11.0,15.0,-999,-99.99,,,-99.99,,2013-06-05 19:40:00,
2013-06-05 15:03:00,48.0,-99.9,30.12,ENE,70,11.0,15.0,-999,-99.99,,,-99.99,,2013-06-05 20:03:00,
2013-06-05 15:12:00,48.0,-99.9,30.12,ENE,70,11.0,15.0,-999,-99.99,,,-99.99,,2013-06-05 20:12:00,
2013-06-05 15:23:00,48.0,-99.9,30.12,ENE,70,11.0,15.0,-999,-99.99,,,-99.99,,2013-06-05 20:23:00,
2013-06-05 15:32:00,48.0,-99.9,30.12,ENE,70,11.0,15.0,-999,-99.99,,,-99.99,,2013-06-05 20:32:00,
2013-06-05 15:40:00,51.0,-99.9,30.11,East,80,13.0,17.0,-999,-99.99,,,-99.99,,2013-06-05 20:40:00,
2013-06-05 16:02:00,51.0,-99.9,30.11,East,80,13.0,17.0,-999,-99.99,,,-99.99,,2013-06-05 21:02:00,
2013-06-05 16:12:00,51.0,-99.9,30.11,East,80,13.0,17.0,-999,-99.99,,,-99.99,,2013-06-05 21:12:00,
2013-06-05 16:23:00,51.0,-99.9,30.11,East,80,13.0,17.0,-999,-99.99,,,-99.99,,2013-06-05 21:23:00,
2013-06-05 16:33:00,51.0,-99.9,30.11,East,80,13.0,17.0,-999,-99.99,,,-99.99,,2013-06-05 21:33:00,
2013-06-05 16:40:00,49.0,-99.9,30.12,East,90,8.0,13.0,-999,-99.99,,,-99.99,,2013-06-05 21:40:00,
2013-06-05 17:03:00,49.0,-99.9,30.12,East,90,8.0,13.0,-999,-99.99,,,-99.99,,2013-06-05 22:03:00,
2013-06-05 17:13:00,49.0,-99.9,30.12,East,90,8.0,13.0,-999,-99.99,,,-99.99,,2013-06-05 22:13:00,
2013-06-05 17:23:00,49.0,-99.9,30.12,East,90,8.0,13.0,-999,-99.99,,,-99.99,,2013-06-05 22:23:00,
2013-06-05 17:33:00,49.0,-99.9,30.12,East,90,8.0,13.0,-999,-99.99,,,-99.99,,2013-06-05 22:33:00,
2013-06-05 18:02:00,51.0,-99.9,30.10,East,100,7.0,13.0,-999,-99.99,,,-99.99,,2013-06-05 23:02:00,
2013-06-05 18:12:00,51.0,-99.9,30.10,East,100,7.0,13.0,-999,-99.99,,,-99.99,,2013-06-05 23:12:00,
2013-06-05 18:20:00,49.0,-99.9,30.09,East,80,9.0,28.0,-999,-99.99,,,-99.99,,2013-06-05 23:20:00,
2013-06-05 18:22:00,51.0,-99.9,30.10,East,100,7.0,13.0,-999,-99.99,,,-99.99,,2013-06-05 23:22:00,
2013-06-05 18:32:00,51.0,-99.9,30.10,East,100,7.0,13.0,-999,-99.99,,,-99.99,,2013-06-05 23:32:00,
2013-06-05 18:42:00,49.0,-99.9,30.09,East,80,9.0,28.0,-999,-99.99,,,-99.99,,2013-06-05 23:42:00,
2013-06-05 18:53:00,49.0,-99.9,30.09,East,80,9.0,28.0,-999,-99.99,,,-99.99,,2013-06-05 23:53:00,
2013-06-05 19:02:00,49.0,-99.9,30.09,East,80,9.0,28.0,-999,-99.99,,,-99.99,,2013-06-06 00:02:00,
2013-06-05 19:12:00,49.0,-99.9,30.09,East,80,9.0,28.0,-999,-99.99,,,-99.99,,2013-06-06 00:12:00,
2013-06-05 19:40:00,49.0,-99.9,30.07,East,80,11.0,15.0,-999,-99.99,,,-99.99,,2013-06-06 00:40:00,
2013-06-05 20:02:00,49.0,-99.9,30.07,East,80,11.0,15.0,-999,-99.99,,,-99.99,,2013-06-06 01:02:00,
2013-06-05 20:13:00,49.0,-99.9,30.07,East,80,11.0,15.0,-999,-99.99,,,-99.99,,2013-06-06 01:13:00,
2013-06-05 20:22:00,49.0,-99.9,30.07,East,80,11.0,15.0,-999,-99.99,,,-99.99,,2013-06-06 01:22:00,
2013-06-05 20:32:00,49.0,-99.9,30.07,East,80,11.0,15.0,-999,-99.99,,,-99.99,,2013-06-06 01:32:00,
2013-06-05 20:40:00,49.0,-99.9,30.07,East,80,7.0,13.0,-999,-99.99,,,-99.99,,2013-06-06 01:40:00,
2013-06-05 21:02:00,49.0,-99.9,30.07,East,80,7.0,13.0,-999,-99.99,,,-99.99,,2013-06-06 02:02:00,
2013-06-05 21:12:00,49.0,-99.9,30.07,East,80,7.0,13.0,-999,-99.99,,,-99.99,,2013-06-06 02:12:00,
2013-06-05 21:22:00,49.0,-99.9,30.07,East,80,7.0,13.0,-999,-99.99,,,-99.99,,2013-06-06 02:22:00,
2013-06-05 21:32:00,49.0,-99.9,30.07,East,80,7.0,13.0,-999,-99.99,,,-99.99,,2013-06-06 02:32:00,
2013-06-05 21:40:00,49.0,-99.9,30.08,ENE,70,11.0,15.0,-999,-99.99,,,-99.99,,2013-06-06 02:40:00,
2013-06-05 22:02:00,49.0,-99.9,30.08,ENE,70,11.0,15.0,-999,-99.99,,,-99.99,,2013-06-06 03:02:00,
2013-06-05 22:12:00,49.0,-99.9,30.08,ENE,70,11.0,15.0,-999,-99.99,,,-99.99,,2013-06-06 03:12:00,
2013-06-05 22:22:00,49.0,-99.9,30.08,ENE,70,11.0,15.0,-999,-99.99,,,-99.99,,2013-06-06 03:22:00,
2013-06-05 22:33:00,49.0,-99.9,30.08,ENE,70,11.0,15.0,-999,-99.99,,,-99.99,,2013-06-06 03:33:00,
2013-06-05 22:40:00,50.0,-99.9,30.08,East,80,8.0,13.0,-999,-99.99,,,-99.99,,2013-06-06 03:40:00,
2013-06-05 23:03:00,50.0,-99.9,30.08,East,80,8.0,13.0,-999,-99.99,,,-99.99,,2013-06-06 04:03:00,
2013-06-05 23:13:00,50.0,-99.9,30.08,East,80,8.0,13.0,-999,-99.99,,,-99.99,,2013-06-06 04:13:00,
2013-06-05 23:23:00,50.0,-99.9,30.08,East,80,8.0,13.0,-999,-99.99,,,-99.99,,2013-06-06 04:23:00,
2013-06-05 23:33:00,50.0,-99.9,30.08,East,80,8.0,13.0,-999,-99.99,,,-99.99,,2013-06-06 04:33:00,
2013-06-05 23:40:00,49.0,-99.9,30.06,East,80,10.0,13.0,-999,-99.99,,,-99.99,,2013-06-06 04:40:00,